createdAt,value
2022-12-15T00:01:06.842Z,4.93
2022-12-15T00:04:27.717Z,4.93
2022-12-15T00:07:55.097Z,4.78
2022-12-15T00:11:16.006Z,6.15
2022-12-15T00:14:37.116Z,4.53
2022-12-15T00:18:04.190Z,6.38
2022-12-15T00:21:33.696Z,4.43
2022-12-15T00:24:57.142Z,4.97
2022-12-15T00:28:26.869Z,4.25
2022-12-15T00:31:49.108Z,6.10
2022-12-15T00:35:25.148Z,5.13
2022-12-15T00:38:44.424Z,4.15
2022-12-15T00:41:46.398Z,4.72
2022-12-15T00:44:55.431Z,4.95
2022-12-15T00:48:06.865Z,5.28
2022-12-15T00:51:18.564Z,4.95
2022-12-15T00:54:39.057Z,4.35
2022-12-15T00:58:03.736Z,5.45
2022-12-15T01:01:40.127Z,5.50
2022-12-15T01:05:13.224Z,4.65
2022-12-15T01:08:33.649Z,5.47
2022-12-15T01:11:54.486Z,5.43
2022-12-15T01:15:14.986Z,4.35
2022-12-15T01:18:36.057Z,4.97
2022-12-15T01:21:38.903Z,5.03
2022-12-15T01:24:42.697Z,5.28
2022-12-15T01:27:46.179Z,5.18
2022-12-15T01:30:54.770Z,5.82
2022-12-15T01:34:12.506Z,6.43
2022-12-15T01:37:14.766Z,6.00
2022-12-15T01:40:40.607Z,6.22
2022-12-15T01:43:49.916Z,8.02
2022-12-15T01:47:01.243Z,4.40
2022-12-15T01:50:03.755Z,7.07
2022-12-15T01:53:05.617Z,5.13
2022-12-15T01:56:08.457Z,5.93
2022-12-15T01:59:22.262Z,4.68
2022-12-15T02:02:33.391Z,4.80
2022-12-15T02:05:45.268Z,4.53
2022-12-15T02:08:50.344Z,4.15
2022-12-15T02:12:04.149Z,5.32
2022-12-15T02:15:35.737Z,5.45
2022-12-15T02:19:10.171Z,4.80
2022-12-15T02:22:28.390Z,5.63
2022-12-15T02:25:43.887Z,4.10
2022-12-15T02:29:26.547Z,4.05
2022-12-15T02:32:56.439Z,4.47
2022-12-15T02:36:32.172Z,4.45
2022-12-15T02:39:43.768Z,4.50
2022-12-15T02:42:59.934Z,3.58
2022-12-15T02:46:26.847Z,3.92
2022-12-15T02:50:10.040Z,5.70
2022-12-15T02:57:24.990Z,4.38
2022-12-15T03:00:32.116Z,4.53
2022-12-15T03:03:38.780Z,6.18
2022-12-15T03:06:48.345Z,4.72
2022-12-15T03:10:01.710Z,5.35
2022-12-15T03:13:17.107Z,6.40
2022-12-15T03:16:32.366Z,5.95
2022-12-15T03:19:46.691Z,6.20
2022-12-15T03:22:58.378Z,6.10
2022-12-15T03:26:06.364Z,4.65
2022-12-15T03:29:09.201Z,5.75
2022-12-15T03:32:12.264Z,5.60
2022-12-15T03:35:14.939Z,5.78
2022-12-15T03:38:25.025Z,4.35
2022-12-15T03:41:27.614Z,6.18
2022-12-15T03:44:30.271Z,3.83
2022-12-15T03:47:35.777Z,5.57
2022-12-15T03:50:38.522Z,3.30
2022-12-15T03:53:43.932Z,7.78
2022-12-15T03:56:47.516Z,5.50
2022-12-15T03:59:50.197Z,6.43
2022-12-15T04:02:55.773Z,5.05
2022-12-15T04:05:58.496Z,5.63
2022-12-15T04:09:01.135Z,5.80
2022-12-15T04:12:06.217Z,7.88
2022-12-15T04:15:11.888Z,4.78
2022-12-15T04:18:20.367Z,7.20
2022-12-15T04:21:22.905Z,5.35
2022-12-15T04:24:44.285Z,5.72
2022-12-15T04:28:05.244Z,8.73
2022-12-15T04:31:48.125Z,6.15
2022-12-15T04:35:08.965Z,5.75
2022-12-15T04:38:29.769Z,5.40
2022-12-15T04:41:51.594Z,5.03
2022-12-15T04:45:18.735Z,6.15
2022-12-15T04:48:44.789Z,5.30
2022-12-15T04:52:05.609Z,5.68
2022-12-15T04:55:31.156Z,6.57
2022-12-15T04:58:51.929Z,4.88
2022-12-15T05:02:18.926Z,4.97
2022-12-15T05:05:45.651Z,4.10
2022-12-15T05:09:06.462Z,5.07
2022-12-15T05:12:27.416Z,4.65
2022-12-15T05:15:52.091Z,5.70
2022-12-15T05:19:13.095Z,6.05
2022-12-15T05:22:36.842Z,7.05
2022-12-15T05:26:02.366Z,5.47
2022-12-15T05:29:23.987Z,13.65
2022-12-15T05:32:26.457Z,6.00
2022-12-15T05:35:29.108Z,15.82
2022-12-15T05:38:37.529Z,5.88
2022-12-15T05:41:43.040Z,9.50
2022-12-15T05:44:45.745Z,8.40
2022-12-15T05:47:55.032Z,6.55
2022-12-15T05:50:57.747Z,7.72
2022-12-15T05:54:00.261Z,7.82
2022-12-15T05:57:02.834Z,8.95
2022-12-15T06:00:06.041Z,10.13
2022-12-15T06:03:14.044Z,9.23
2022-12-15T06:06:16.564Z,9.00
2022-12-15T06:09:19.023Z,10.18
2022-12-15T06:12:21.291Z,13.60
2022-12-15T06:15:23.872Z,8.52
2022-12-15T06:18:28.984Z,7.65
2022-12-15T06:21:35.638Z,9.45
2022-12-15T06:24:37.970Z,8.70
2022-12-15T06:27:40.412Z,8.43
2022-12-15T06:30:43.038Z,9.13
2022-12-15T06:33:47.949Z,9.02
2022-12-15T06:36:50.571Z,10.48
2022-12-15T06:39:53.154Z,9.38
2022-12-15T06:42:55.561Z,9.88
2022-12-15T06:45:58.369Z,7.18
2022-12-15T06:49:02.246Z,8.30
2022-12-15T06:52:04.712Z,7.70
2022-12-15T06:55:06.844Z,9.00
2022-12-15T06:58:08.770Z,9.05
2022-12-15T07:01:11.444Z,10.27
2022-12-15T07:04:13.540Z,12.38
2022-12-15T07:07:15.580Z,7.97
2022-12-15T07:10:18.304Z,5.75
2022-12-15T07:13:23.283Z,9.02
2022-12-15T07:16:25.574Z,8.27
2022-12-15T07:19:27.442Z,8.27
2022-12-15T07:22:29.436Z,9.82
2022-12-15T07:25:31.547Z,8.48
2022-12-15T07:28:34.807Z,7.60
2022-12-15T07:31:40.732Z,8.23
2022-12-15T07:34:43.353Z,8.05
2022-12-15T07:37:46.846Z,8.35
2022-12-15T07:40:50.953Z,7.47
2022-12-15T07:43:52.986Z,6.95
2022-12-15T07:46:55.829Z,7.00
2022-12-15T07:49:58.070Z,6.65
2022-12-15T07:52:59.921Z,7.90
2022-12-15T07:56:09.115Z,9.55
2022-12-15T07:59:12.941Z,7.90
2022-12-15T08:02:15.078Z,8.65
2022-12-15T08:05:17.061Z,9.18
2022-12-15T08:08:18.940Z,7.18
2022-12-15T08:11:22.629Z,7.32
2022-12-15T08:14:24.999Z,7.50
2022-12-15T08:17:26.959Z,6.35
2022-12-15T08:20:30.539Z,8.13
2022-12-15T08:23:33.958Z,7.32
2022-12-15T08:26:38.018Z,9.23
2022-12-15T08:29:55.075Z,8.88
2022-12-15T08:32:56.840Z,15.60
2022-12-15T08:36:03.564Z,9.60
2022-12-15T08:39:06.559Z,6.30
2022-12-15T08:42:08.789Z,5.57
2022-12-15T08:45:12.776Z,6.65
2022-12-15T08:48:14.733Z,8.77
2022-12-15T08:51:17.128Z,7.50
2022-12-15T08:54:19.982Z,6.10
2022-12-15T08:57:21.944Z,6.15
2022-12-15T09:00:24.201Z,7.93
2022-12-15T09:03:27.672Z,5.07
2022-12-15T09:06:31.981Z,6.47
2022-12-15T09:09:33.736Z,7.05
2022-12-15T09:12:35.494Z,6.53
2022-12-15T09:16:07.551Z,5.70
2022-12-15T09:18:59.992Z,6.72
2022-12-15T09:22:01.808Z,7.45
2022-12-15T09:25:06.259Z,6.38
2022-12-15T09:28:08.055Z,5.15
2022-12-15T09:31:22.355Z,6.07
2022-12-15T09:34:24.420Z,6.50
2022-12-15T09:37:26.220Z,4.95
2022-12-15T09:40:28.069Z,7.38
2022-12-15T09:43:34.711Z,7.90
2022-12-15T09:49:59.641Z,8.93
2022-12-15T09:53:02.536Z,9.68
2022-12-15T09:56:27.796Z,7.38
2022-12-15T09:59:34.966Z,9.23
2022-12-15T10:06:15.052Z,9.02
2022-12-15T10:09:23.347Z,6.80
2022-12-15T10:12:30.118Z,7.35
2022-12-15T10:15:42.101Z,8.07
2022-12-15T10:19:02.691Z,8.50
2022-12-15T10:22:04.575Z,9.27
2022-12-15T10:25:31.154Z,8.18
2022-12-15T10:28:54.458Z,8.98
2022-12-15T10:32:01.554Z,6.68
2022-12-15T10:35:14.661Z,7.13
2022-12-15T10:38:35.009Z,7.03
2022-12-15T10:41:37.008Z,7.32
2022-12-15T10:44:41.596Z,9.48
2022-12-15T10:47:59.687Z,8.25
2022-12-15T10:51:15.334Z,9.57
2022-12-15T10:54:19.197Z,10.35
2022-12-15T10:57:30.334Z,10.18
2022-12-15T11:00:33.572Z,9.63
2022-12-15T11:03:39.981Z,7.13
2022-12-15T11:06:42.833Z,9.80
2022-12-15T11:09:45.303Z,8.85
2022-12-15T11:13:08.637Z,8.00
2022-12-15T11:16:15.849Z,4.07
2022-12-15T11:22:44.502Z,5.82
2022-12-15T11:26:21.003Z,4.63
2022-12-15T11:30:31.118Z,5.68
2022-12-15T11:36:58.071Z,5.70
2022-12-15T11:40:37.463Z,5.32
2022-12-15T11:43:55.315Z,5.70
2022-12-15T11:46:57.189Z,4.50
2022-12-15T11:50:25.413Z,5.28
2022-12-15T11:53:56.144Z,3.72
2022-12-15T11:57:35.693Z,6.18
2022-12-15T12:00:43.919Z,6.10
2022-12-15T12:04:03.071Z,6.28
2022-12-15T12:07:26.608Z,5.90
2022-12-15T12:10:50.238Z,5.93
2022-12-15T12:14:14.567Z,6.22
2022-12-15T12:17:22.101Z,7.13
2022-12-15T12:20:52.981Z,4.88
2022-12-15T12:23:57.209Z,5.40
2022-12-15T12:27:06.351Z,6.07
2022-12-15T12:30:17.113Z,7.30
2022-12-15T12:33:31.093Z,7.15
2022-12-15T12:36:32.841Z,8.05
2022-12-15T12:39:35.060Z,6.47
2022-12-15T12:42:52.795Z,6.22
2022-12-15T12:48:57.677Z,5.97
2022-12-15T12:52:02.039Z,3.85
2022-12-15T12:55:33.048Z,6.75
2022-12-15T12:58:35.267Z,6.95
2022-12-15T13:01:38.727Z,5.82
2022-12-15T13:04:43.221Z,5.80
2022-12-15T13:07:57.557Z,5.30
2022-12-15T13:11:39.069Z,7.10
2022-12-15T13:14:41.061Z,8.25
2022-12-15T13:17:50.633Z,8.73
2022-12-15T13:20:56.819Z,9.35
2022-12-15T13:23:59.620Z,14.23
2022-12-15T13:30:10.835Z,15.07
2022-12-15T13:33:17.395Z,26.83
2022-12-15T13:36:40.608Z,7.60
2022-12-15T13:39:55.918Z,8.75
2022-12-15T13:43:19.192Z,5.28
2022-12-15T13:46:26.167Z,5.45
2022-12-15T13:49:37.681Z,5.88
2022-12-15T13:53:18.548Z,7.22
2022-12-15T13:56:55.327Z,8.70
2022-12-15T13:59:58.811Z,6.55
2022-12-15T14:03:07.099Z,7.38
2022-12-15T14:06:13.558Z,8.80
2022-12-15T14:09:19.720Z,8.93
2022-12-15T14:12:21.859Z,8.75
2022-12-15T14:15:32.390Z,9.13
2022-12-15T14:18:36.617Z,8.32
2022-12-15T14:21:38.669Z,8.13
2022-12-15T14:24:44.720Z,6.65
2022-12-15T14:27:50.642Z,9.93
2022-12-15T14:30:53.528Z,7.22
2022-12-15T14:34:14.519Z,13.73
2022-12-15T14:37:19.630Z,7.72
2022-12-15T14:40:28.227Z,9.70
2022-12-15T14:43:37.588Z,7.53
2022-12-15T14:46:39.908Z,10.02
2022-12-15T14:49:45.560Z,15.07
2022-12-15T14:52:47.663Z,14.35
2022-12-15T14:55:50.212Z,9.55
2022-12-15T14:59:05.047Z,10.73
2022-12-15T15:02:23.449Z,12.63
2022-12-15T15:05:28.133Z,20.70
2022-12-15T15:08:37.010Z,15.25
2022-12-15T15:11:42.084Z,13.85
2022-12-15T15:14:49.554Z,11.13
2022-12-15T15:17:55.238Z,24.80
2022-12-15T15:21:01.661Z,25.48
2022-12-15T15:24:09.904Z,19.98
2022-12-15T15:27:38.677Z,31.95
2022-12-15T15:30:56.234Z,12.88
2022-12-15T15:33:58.988Z,16.92
2022-12-15T15:37:03.323Z,51.08
2022-12-15T15:40:10.888Z,17.60
2022-12-15T15:43:13.570Z,19.00
2022-12-15T15:46:20.453Z,11.82
2022-12-15T15:49:24.746Z,11.40
2022-12-15T15:52:28.906Z,12.82
2022-12-15T15:55:37.796Z,20.27
2022-12-15T15:58:43.021Z,32.03
2022-12-15T16:01:46.783Z,16.65
2022-12-15T16:04:50.101Z,14.65
2022-12-15T16:07:52.143Z,11.13
2022-12-15T16:10:54.726Z,10.65
2022-12-15T16:13:57.245Z,11.30
2022-12-15T16:17:00.365Z,10.57
2022-12-15T16:20:02.816Z,10.30
2022-12-15T16:23:16.978Z,8.90
2022-12-15T16:26:30.499Z,9.30
2022-12-15T16:29:32.738Z,10.57
2022-12-15T16:32:34.866Z,12.77
2022-12-15T16:35:37.443Z,12.38
2022-12-15T16:38:43.622Z,10.00
2022-12-15T16:41:45.741Z,12.80
2022-12-15T16:44:48.255Z,11.40
2022-12-15T16:47:50.978Z,10.65
2022-12-15T16:50:56.248Z,10.07
2022-12-15T16:53:58.702Z,11.65
2022-12-15T16:57:03.096Z,9.95
2022-12-15T17:00:22.630Z,13.00
2022-12-15T17:03:28.415Z,10.63
2022-12-15T17:06:31.093Z,14.70
2022-12-15T17:09:37.469Z,15.25
2022-12-15T17:12:40.633Z,13.85
2022-12-15T17:15:43.077Z,13.23
2022-12-15T17:18:45.450Z,11.70
2022-12-15T17:21:52.852Z,11.52
2022-12-15T17:24:55.581Z,8.35
2022-12-15T17:27:58.297Z,8.43
2022-12-15T17:31:00.868Z,9.32
2022-12-15T17:34:25.641Z,9.15
2022-12-15T17:37:34.881Z,13.35
2022-12-15T17:40:37.884Z,14.10
2022-12-15T17:43:41.625Z,10.07
2022-12-15T17:46:44.069Z,12.30
2022-12-15T17:49:47.788Z,9.40
2022-12-15T17:52:50.435Z,10.05
2022-12-15T17:55:54.256Z,9.13
2022-12-15T17:58:56.505Z,11.25
2022-12-15T18:01:58.652Z,12.02
2022-12-15T18:05:00.684Z,15.93
2022-12-15T18:08:07.630Z,13.77
2022-12-15T18:11:16.062Z,13.10
2022-12-15T18:14:20.064Z,13.90
2022-12-15T18:17:22.953Z,15.02
2022-12-15T18:20:26.078Z,15.38
2022-12-15T18:23:33.152Z,11.35
2022-12-15T18:26:38.345Z,9.85
2022-12-15T18:29:40.293Z,7.55
2022-12-15T18:32:42.704Z,7.65
2022-12-15T18:35:47.326Z,7.70
2022-12-15T18:38:49.803Z,8.00
2022-12-15T18:41:55.162Z,10.10
2022-12-15T18:44:58.878Z,8.82
2022-12-15T18:48:00.987Z,11.43
2022-12-15T18:51:13.595Z,11.07
2022-12-15T18:54:24.292Z,10.50
2022-12-15T18:57:40.023Z,9.93
2022-12-15T19:00:42.635Z,11.88
2022-12-15T19:03:44.699Z,11.18
2022-12-15T19:06:47.403Z,11.77
2022-12-15T19:09:50.518Z,10.10
2022-12-15T19:12:58.239Z,16.88
2022-12-15T19:16:02.630Z,23.23
2022-12-15T19:19:23.356Z,8.43
2022-12-15T19:22:29.871Z,9.32
2022-12-15T19:25:32.869Z,9.48
2022-12-15T19:28:35.159Z,11.23
2022-12-15T19:31:37.667Z,10.18
2022-12-15T19:34:40.382Z,13.75
2022-12-15T19:37:44.869Z,12.57
2022-12-15T19:40:48.240Z,11.43
2022-12-15T19:43:50.233Z,12.38
2022-12-15T19:46:52.957Z,10.13
2022-12-15T19:49:55.161Z,11.60
2022-12-15T19:53:02.356Z,9.82
2022-12-15T19:59:13.606Z,16.33
2022-12-15T20:02:17.958Z,17.85
2022-12-15T20:05:25.376Z,16.52
2022-12-15T20:11:32.295Z,16.08
2022-12-15T20:14:34.575Z,13.95
2022-12-15T20:17:36.612Z,11.48
2022-12-15T20:20:39.163Z,22.00
2022-12-15T20:23:55.321Z,30.38
2022-12-15T20:26:57.794Z,20.17
2022-12-15T20:30:00.078Z,19.08
2022-12-15T20:33:04.067Z,15.85
2022-12-15T20:36:16.205Z,15.30
2022-12-15T20:39:26.622Z,20.60
2022-12-15T20:42:28.693Z,12.65
2022-12-15T20:45:30.833Z,10.20
2022-12-15T20:48:34.296Z,7.97
2022-12-15T20:51:36.194Z,11.93
2022-12-15T20:54:38.171Z,12.73
2022-12-15T20:57:40.321Z,13.05
2022-12-15T21:00:43.043Z,8.90
2022-12-15T21:03:46.037Z,10.80
2022-12-15T21:06:52.946Z,13.65
2022-12-15T21:09:56.844Z,14.48
2022-12-15T21:12:58.897Z,14.57
2022-12-15T21:16:01.315Z,13.48
2022-12-15T21:19:19.842Z,15.35
2022-12-15T21:22:25.092Z,18.17
2022-12-15T21:25:27.754Z,16.77
2022-12-15T21:28:30.231Z,13.27
2022-12-15T21:31:32.238Z,15.80
2022-12-15T21:34:34.841Z,14.43
2022-12-15T21:37:36.893Z,14.60
2022-12-15T21:40:38.906Z,19.10
2022-12-15T21:43:40.773Z,15.50
2022-12-15T21:46:42.842Z,14.10
2022-12-15T21:49:44.737Z,12.80
2022-12-15T21:52:47.719Z,17.88
2022-12-15T21:55:50.095Z,20.88
2022-12-15T21:58:52.934Z,17.48
2022-12-15T22:01:57.556Z,15.88
2022-12-15T22:04:59.797Z,12.63
2022-12-15T22:08:13.719Z,11.57
2022-12-15T22:11:23.854Z,14.63
2022-12-15T22:14:28.121Z,14.88
2022-12-15T22:17:30.253Z,12.82
2022-12-15T22:20:32.371Z,13.57
2022-12-15T22:23:34.649Z,13.38
2022-12-15T22:26:37.829Z,11.00
2022-12-15T22:29:39.857Z,13.15
2022-12-15T22:32:42.395Z,13.65
2022-12-15T22:35:44.292Z,10.80
2022-12-15T22:38:47.089Z,13.77
2022-12-15T22:41:51.012Z,13.02
2022-12-15T22:44:53.873Z,12.68
2022-12-15T22:47:57.050Z,14.93
2022-12-15T22:50:59.386Z,11.57
2022-12-15T22:54:01.641Z,10.25
2022-12-15T22:57:05.596Z,8.50
2022-12-15T23:00:09.890Z,9.68
2022-12-15T23:03:12.308Z,8.63
2022-12-15T23:06:14.155Z,10.48
2022-12-15T23:09:20.938Z,10.75
2022-12-15T23:12:23.094Z,13.18
2022-12-15T23:15:45.235Z,11.88
2022-12-15T23:18:49.113Z,11.45
2022-12-15T23:21:51.754Z,12.07
2022-12-15T23:24:53.705Z,13.60
2022-12-15T23:27:55.856Z,10.13
2022-12-15T23:30:58.132Z,11.93
2022-12-15T23:34:00.108Z,11.35
2022-12-15T23:37:02.902Z,8.88
2022-12-15T23:40:05.446Z,8.98
2022-12-15T23:43:07.438Z,7.88
2022-12-15T23:46:09.469Z,10.15
2022-12-15T23:49:11.399Z,14.02
2022-12-15T23:52:13.205Z,13.63
2022-12-15T23:55:15.232Z,11.25
2022-12-15T23:58:16.943Z,8.40
